Dayton, OH (45441)

6:17 AM EDT on September 21, 2014 (GMT -0400)
Centerville/Kettering - Rahn Rd | Change Station
CLOSE
Current Station
Personal Weather Station
Location: Kettering, OH
Elevation: 1000 ft
Nearby Weather Stations

Elev 1000 ft 39.67 °N, 84.14 °W | Updated 2 minutes ago

Clear
Clear
69.7 °F
Feels Like 69.7 °F
N
8.0
Wind Variable Wind from WSW
Gusts 18.0 mph

Today
High -- | Low -- °F
--% Chance of Precip.
Yesterday
High -- | Low -- °F
Precip. -- in
7:23 AM 7:35 PM
Waning Crescent, 7% visible
Pressure 29.78 in
Visibility 10.0 miles
Clouds Few 2700 ft
Mostly Cloudy 3700 ft
Overcast 7000 ft
Dew Point 66 °F
Humidity 87%
Rainfall 0.00 in
Snow Depth Not available.
UV 0 out of 12
Pollen 5.70 out of 12
Ozone Good
PM2.5 Moderate
Flu Activity Not available.
METAR KMGY 210953Z AUTO 24012KT 10SM FEW027 BKN037 OVC070 22/18 A2980 RMK AO2 SLP084 T02170183

More Conditions Fewer Conditions

Pressure 29.78 in
Visibility 10.0 miles
Clouds Few 2700 ft
Mostly Cloudy 3700 ft
Overcast 7000 ft
Dew Point 66 °F
Humidity 87%
Rainfall 0.00 in
Snow Depth Not available.
UV 0 out of 12
Pollen 5.70 out of 12
Ozone Good
PM2.5 Moderate
Flu Activity Not available.
METAR KMGY 210953Z AUTO 24012KT 10SM FEW027 BKN037 OVC070 22/18 A2980 RMK AO2 SLP084 T02170183

More Conditions Fewer Conditions

10-Day Weather Forecast

Almanac

Astronomy

Sep. 21, 2014 Rise Set
Actual Time 7:23 AM EDT 7:35 PM EDT
Civil Twilight 6:56 AM EDT 8:02 PM EDT
Nautical Twilight 6:24 AM EDT 8:33 PM EDT
Astronomical Twilight 5:52 AM EDT 9:05 PM EDT
Moon 4:56 AM EDT 6:10 PM EDT
Length of Visible Light 13h 05m
Length of Day
12h 12m
Tomorrow will be 2m 34s shorter.
Waning Crescent, 7% of the Moon is Illuminated
Today
Waning Crescent
Sep 24
New
Oct 1
First Quarter
Oct 8
Full
Oct 15
Last Quarter

Today's Extremes

State Highs State Lows

Community

WunderPhotos

Upload Photos

1,755,107 photos uploaded!

Nearby

Air Quality

  Air Quality AQ Index Pollutant
Yesterday Moderate
PM2.5
Yesterday Good
OZONE
Current Moderate
PM2.5
Current Good
OZONE
Sunday Good
PM2.5
Sunday Good
OZONE
Monday Good
OZONE
Monday Good
PM2.5
Tuesday Moderate
PM2.5
Tuesday Good
OZONE

Snow Depth

Station Depth Elevation
No new snow has been reported.

Earthquake Activity

City Distance Mag. Time & Date
No recent earthquake activity has been reported nearby.
Minimum magnitude displayed is 2.5.

Coastal Water Temperatures

Place Temperature
No Stations Reporting

Nearby Weather Stations